createdAt,value
2018-11-06T00:00:42.706Z,11.34
2018-11-06T00:04:15.070Z,11.29
2018-11-06T00:06:44.465Z,11.26
2018-11-06T00:09:14.187Z,11.24
2018-11-06T00:11:43.589Z,11.19
2018-11-06T00:14:12.955Z,11.27
2018-11-06T00:16:42.926Z,11.27
2018-11-06T00:19:12.359Z,11.26
2018-11-06T00:21:41.742Z,11.22
2018-11-06T00:24:11.310Z,11.22
2018-11-06T00:26:40.699Z,11.14
2018-11-06T00:29:10.132Z,11.11
2018-11-06T00:31:39.536Z,11.06
2018-11-06T00:34:09.199Z,11.02
2018-11-06T00:36:38.652Z,10.98
2018-11-06T00:39:09.151Z,11.02
2018-11-06T00:41:39.074Z,11.00
2018-11-06T00:44:08.709Z,10.93
2018-11-06T00:46:38.086Z,10.90
2018-11-06T00:49:07.518Z,10.91
2018-11-06T00:51:37.218Z,10.88
2018-11-06T00:54:07.158Z,10.87
2018-11-06T00:56:37.002Z,10.83
2018-11-06T00:59:06.447Z,10.84
2018-11-06T01:01:35.858Z,10.78
2018-11-06T01:04:07.424Z,10.77
2018-11-06T01:06:36.924Z,10.75
2018-11-06T01:09:11.345Z,10.73
2018-11-06T01:11:41.573Z,10.72
2018-11-06T01:14:10.951Z,10.68
2018-11-06T01:16:41.199Z,10.65
2018-11-06T01:19:11.192Z,10.65
2018-11-06T01:21:40.569Z,10.63
2018-11-06T01:24:10.563Z,10.65
2018-11-06T01:26:39.922Z,10.72
2018-11-06T01:29:09.650Z,10.75
2018-11-06T01:31:39.003Z,10.74
2018-11-06T01:34:08.524Z,10.70
2018-11-06T01:36:37.978Z,10.82
2018-11-06T01:39:09.219Z,10.77
2018-11-06T01:41:39.194Z,10.75
2018-11-06T01:44:09.107Z,10.76
2018-11-06T01:46:38.548Z,10.68
2018-11-06T01:49:07.981Z,10.65
2018-11-06T01:51:37.663Z,10.68
2018-11-06T01:54:07.067Z,10.57
2018-11-06T01:56:36.643Z,10.59
2018-11-06T01:59:07.318Z,10.62
2018-11-06T02:01:36.745Z,10.57
2018-11-06T02:04:06.220Z,10.51
2018-11-06T02:06:35.725Z,10.50
2018-11-06T02:09:07.560Z,10.52
2018-11-06T02:11:36.926Z,10.48
2018-11-06T02:14:06.864Z,10.48
2018-11-06T02:16:36.293Z,10.47
2018-11-06T02:19:06.042Z,10.44
2018-11-06T02:21:35.432Z,10.47
2018-11-06T02:24:05.726Z,10.52
2018-11-06T02:26:35.063Z,10.52
2018-11-06T02:29:04.498Z,10.49
2018-11-06T02:31:33.907Z,10.54
2018-11-06T02:34:03.767Z,10.46
2018-11-06T02:36:33.181Z,10.51
2018-11-06T02:39:02.537Z,10.50
2018-11-06T02:41:32.055Z,10.51
2018-11-06T02:44:01.482Z,10.50
2018-11-06T02:46:30.901Z,10.49
2018-11-06T02:49:00.307Z,10.50
2018-11-06T02:51:30.179Z,10.55
2018-11-06T02:53:59.750Z,10.54
2018-11-06T02:56:29.222Z,10.52
2018-11-06T02:58:59.709Z,10.57
2018-11-06T03:01:29.127Z,10.67
2018-11-06T03:03:58.598Z,10.67
2018-11-06T03:06:27.988Z,10.78
2018-11-06T03:08:57.889Z,10.82
2018-11-06T03:11:27.294Z,10.74
2018-11-06T03:13:56.799Z,10.69
2018-11-06T03:16:26.197Z,10.63
2018-11-06T03:18:55.554Z,10.64
2018-11-06T03:21:25.105Z,10.59
2018-11-06T03:23:54.479Z,10.57
2018-11-06T03:26:23.921Z,10.61
2018-11-06T03:28:53.434Z,10.60
2018-11-06T03:31:22.805Z,10.60
2018-11-06T03:33:52.202Z,10.62
2018-11-06T03:36:21.597Z,10.67
2018-11-06T03:38:50.972Z,10.69
2018-11-06T03:41:20.354Z,10.67
2018-11-06T03:43:49.770Z,10.73
2018-11-06T03:46:19.212Z,10.73
2018-11-06T03:48:48.658Z,10.76
2018-11-06T03:51:18.054Z,10.84
2018-11-06T03:53:47.571Z,10.81
2018-11-06T03:56:17.569Z,10.91
2018-11-06T03:58:47.093Z,11.00
2018-11-06T04:01:16.490Z,11.09
2018-11-06T04:03:45.890Z,11.12
2018-11-06T04:06:15.270Z,11.13
2018-11-06T04:08:44.650Z,11.08
2018-11-06T04:11:14.175Z,11.05
2018-11-06T04:13:43.672Z,11.05
2018-11-06T04:16:13.225Z,10.91
2018-11-06T04:18:42.635Z,10.85
2018-11-06T04:21:12.023Z,10.82
2018-11-06T04:23:41.574Z,10.81
2018-11-06T04:26:10.950Z,10.79
2018-11-06T04:28:40.330Z,10.81
2018-11-06T04:31:09.680Z,10.83
2018-11-06T04:33:39.160Z,10.81
2018-11-06T04:36:08.567Z,10.86
2018-11-06T04:38:37.965Z,10.88
2018-11-06T04:41:07.327Z,10.89
2018-11-06T04:43:36.875Z,10.97
2018-11-06T04:46:06.503Z,11.06
2018-11-06T04:48:35.971Z,11.06
2018-11-06T04:51:05.887Z,11.16
2018-11-06T04:53:35.821Z,11.25
2018-11-06T04:56:05.561Z,11.28
2018-11-06T04:58:34.914Z,11.32
2018-11-06T05:01:04.749Z,11.34
2018-11-06T05:03:34.328Z,11.32
2018-11-06T05:06:03.738Z,11.29
2018-11-06T05:08:33.167Z,11.26
2018-11-06T05:11:02.560Z,11.25
2018-11-06T05:13:32.076Z,11.25
2018-11-06T05:16:01.544Z,11.24
2018-11-06T05:18:30.934Z,11.25
2018-11-06T05:21:00.323Z,11.25
2018-11-06T05:23:29.702Z,11.26
2018-11-06T05:25:59.524Z,11.26
2018-11-06T05:28:29.180Z,11.28
2018-11-06T05:30:59.094Z,11.28
2018-11-06T05:33:28.537Z,11.28
2018-11-06T05:35:57.944Z,11.25
2018-11-06T05:38:27.448Z,11.20
2018-11-06T05:41:01.155Z,11.27
2018-11-06T05:43:30.561Z,11.34
2018-11-06T05:46:00.154Z,11.30
2018-11-06T05:48:29.678Z,11.34
2018-11-06T05:50:59.078Z,11.32
2018-11-06T05:53:28.498Z,11.33
2018-11-06T05:55:57.985Z,11.39
2018-11-06T05:58:27.389Z,11.28
2018-11-06T06:00:56.792Z,11.22
2018-11-06T06:03:26.172Z,11.20
2018-11-06T06:05:55.587Z,11.22
2018-11-06T06:08:24.983Z,11.20
2018-11-06T06:10:54.381Z,11.26
2018-11-06T06:13:23.816Z,11.30
2018-11-06T06:15:53.174Z,11.32
2018-11-06T06:18:22.721Z,11.38
2018-11-06T06:20:52.101Z,11.37
2018-11-06T06:23:21.630Z,11.35
2018-11-06T06:25:51.034Z,11.45
2018-11-06T06:28:20.652Z,11.42
2018-11-06T06:30:50.083Z,11.31
2018-11-06T06:33:19.696Z,11.23
2018-11-06T06:35:49.159Z,11.15
2018-11-06T06:38:18.564Z,11.11
2018-11-06T06:40:48.492Z,11.03
2018-11-06T06:43:17.991Z,10.96
2018-11-06T06:45:47.393Z,10.90
2018-11-06T06:48:18.012Z,10.87
2018-11-06T06:50:47.514Z,10.83
2018-11-06T06:53:17.010Z,10.75
2018-11-06T06:55:46.440Z,10.75
2018-11-06T06:58:15.788Z,10.80
2018-11-06T07:00:45.167Z,10.78
2018-11-06T07:03:14.570Z,10.80
2018-11-06T07:05:43.971Z,10.82
2018-11-06T07:08:13.670Z,10.82
2018-11-06T07:10:43.058Z,10.86
2018-11-06T07:13:12.721Z,10.88
2018-11-06T07:15:42.641Z,10.93
2018-11-06T07:18:12.010Z,11.02
